sensor_id;sensor_type;location;lat;lon;timestamp;temperature;humidity
42339;DHT22;27993;45.392;10.918;2024-01-30T00:01:48;-0.20;99.90
42339;DHT22;27993;45.392;10.918;2024-01-30T00:04:18;-0.10;99.90
42339;DHT22;27993;45.392;10.918;2024-01-30T00:06:51;-0.10;99.90
42339;DHT22;27993;45.392;10.918;2024-01-30T00:09:21;-0.10;99.90
42339;DHT22;27993;45.392;10.918;2024-01-30T00:11:52;-0.20;99.90
42339;DHT22;27993;45.392;10.918;2024-01-30T00:14:22;-0.20;99.90
42339;DHT22;27993;45.392;10.918;2024-01-30T00:16:53;-0.20;99.90
42339;DHT22;27993;45.392;10.918;2024-01-30T00:19:24;0.00;99.90
42339;DHT22;27993;45.392;10.918;2024-01-30T00:21:54;-0.10;99.90
42339;DHT22;27993;45.392;10.918;2024-01-30T00:24:25;-0.20;99.90
42339;DHT22;27993;45.392;10.918;2024-01-30T00:26:55;-0.20;99.90
42339;DHT22;27993;45.392;10.918;2024-01-30T00:29:26;-0.30;99.90
42339;DHT22;27993;45.392;10.918;2024-01-30T00:32:00;-0.30;99.90
42339;DHT22;27993;45.392;10.918;2024-01-30T00:34:31;-0.30;99.90
42339;DHT22;27993;45.392;10.918;2024-01-30T00:37:01;-0.20;99.90
42339;DHT22;27993;45.392;10.918;2024-01-30T00:39:32;-0.30;99.90
42339;DHT22;27993;45.392;10.918;2024-01-30T00:42:03;-0.30;99.90
42339;DHT22;27993;45.392;10.918;2024-01-30T00:44:36;-0.30;99.90
42339;DHT22;27993;45.392;10.918;2024-01-30T00:47:10;-0.40;99.90
42339;DHT22;27993;45.392;10.918;2024-01-30T00:49:40;-0.30;99.90
42339;DHT22;27993;45.392;10.918;2024-01-30T00:52:11;-0.20;99.90
42339;DHT22;27993;45.392;10.918;2024-01-30T00:54:42;-0.20;99.90
42339;DHT22;27993;45.392;10.918;2024-01-30T00:57:12;-0.10;99.90
42339;DHT22;27993;45.392;10.918;2024-01-30T00:59:46;-0.30;99.90
42339;DHT22;27993;45.392;10.918;2024-01-30T01:02:16;-0.50;99.90
42339;DHT22;27993;45.392;10.918;2024-01-30T01:04:49;-0.40;99.90
42339;DHT22;27993;45.392;10.918;2024-01-30T01:07:20;-0.40;99.90
42339;DHT22;27993;45.392;10.918;2024-01-30T01:09:51;-0.30;99.90
42339;DHT22;27993;45.392;10.918;2024-01-30T01:12:21;-0.40;99.90
42339;DHT22;27993;45.392;10.918;2024-01-30T01:14:52;-0.40;99.90
42339;DHT22;27993;45.392;10.918;2024-01-30T01:17:23;-0.40;99.90
42339;DHT22;27993;45.392;10.918;2024-01-30T01:19:53;-0.40;99.90
42339;DHT22;27993;45.392;10.918;2024-01-30T01:22:24;-0.30;99.90
42339;DHT22;27993;45.392;10.918;2024-01-30T01:24:54;-0.30;99.90
42339;DHT22;27993;45.392;10.918;2024-01-30T01:27:25;-0.30;99.90
42339;DHT22;27993;45.392;10.918;2024-01-30T01:29:56;-0.30;99.90
42339;DHT22;27993;45.392;10.918;2024-01-30T01:32:26;-0.40;99.90
42339;DHT22;27993;45.392;10.918;2024-01-30T01:34:57;-0.40;99.90
42339;DHT22;27993;45.392;10.918;2024-01-30T01:37:28;-0.60;99.90
42339;DHT22;27993;45.392;10.918;2024-01-30T01:39:58;-0.50;99.90
42339;DHT22;27993;45.392;10.918;2024-01-30T01:42:29;-0.40;99.90
42339;DHT22;27993;45.392;10.918;2024-01-30T01:44:59;-0.40;99.90
42339;DHT22;27993;45.392;10.918;2024-01-30T01:47:30;-0.30;99.90
42339;DHT22;27993;45.392;10.918;2024-01-30T01:50:01;-0.40;99.90
42339;DHT22;27993;45.392;10.918;2024-01-30T01:52:32;-0.40;99.90
42339;DHT22;27993;45.392;10.918;2024-01-30T01:55:03;-0.60;99.90
42339;DHT22;27993;45.392;10.918;2024-01-30T01:57:34;-0.70;99.90
42339;DHT22;27993;45.392;10.918;2024-01-30T02:00:06;-0.80;99.90
42339;DHT22;27993;45.392;10.918;2024-01-30T02:02:41;-0.90;99.90
42339;DHT22;27993;45.392;10.918;2024-01-30T02:05:15;-0.90;99.90
42339;DHT22;27993;45.392;10.918;2024-01-30T02:07:46;-1.00;99.90
42339;DHT22;27993;45.392;10.918;2024-01-30T02:10:17;-1.20;99.90
42339;DHT22;27993;45.392;10.918;2024-01-30T02:12:48;-0.90;99.90
42339;DHT22;27993;45.392;10.918;2024-01-30T02:15:19;-0.90;99.90
42339;DHT22;27993;45.392;10.918;2024-01-30T02:17:50;-0.90;99.90
42339;DHT22;27993;45.392;10.918;2024-01-30T02:20:24;-0.90;99.90
42339;DHT22;27993;45.392;10.918;2024-01-30T02:22:56;-0.70;99.90
42339;DHT22;27993;45.392;10.918;2024-01-30T02:25:34;-0.70;99.90
42339;DHT22;27993;45.392;10.918;2024-01-30T02:28:05;-1.00;99.90
42339;DHT22;27993;45.392;10.918;2024-01-30T02:30:36;-0.90;99.90
42339;DHT22;27993;45.392;10.918;2024-01-30T02:33:06;-0.80;99.90
42339;DHT22;27993;45.392;10.918;2024-01-30T02:35:37;-1.00;99.90
42339;DHT22;27993;45.392;10.918;2024-01-30T02:38:11;-1.10;99.90
42339;DHT22;27993;45.392;10.918;2024-01-30T02:40:41;-0.90;99.90
42339;DHT22;27993;45.392;10.918;2024-01-30T02:43:12;-0.90;99.90
42339;DHT22;27993;45.392;10.918;2024-01-30T02:45:43;-1.40;99.90
42339;DHT22;27993;45.392;10.918;2024-01-30T02:48:13;-1.60;99.90
42339;DHT22;27993;45.392;10.918;2024-01-30T02:50:44;-1.70;99.90
42339;DHT22;27993;45.392;10.918;2024-01-30T02:53:14;-1.70;99.90
42339;DHT22;27993;45.392;10.918;2024-01-30T02:55:45;-1.50;99.90
42339;DHT22;27993;45.392;10.918;2024-01-30T02:58:16;-1.30;99.90
42339;DHT22;27993;45.392;10.918;2024-01-30T03:00:46;-1.30;99.90
42339;DHT22;27993;45.392;10.918;2024-01-30T03:03:17;-1.50;99.90
42339;DHT22;27993;45.392;10.918;2024-01-30T03:05:48;-1.40;99.90
42339;DHT22;27993;45.392;10.918;2024-01-30T03:08:18;-1.20;99.90
42339;DHT22;27993;45.392;10.918;2024-01-30T03:10:49;-1.10;99.90
42339;DHT22;27993;45.392;10.918;2024-01-30T03:13:20;-1.50;99.90
42339;DHT22;27993;45.392;10.918;2024-01-30T03:15:50;-1.30;99.90
42339;DHT22;27993;45.392;10.918;2024-01-30T03:18:21;-1.10;99.90
42339;DHT22;27993;45.392;10.918;2024-01-30T03:20:52;-1.20;99.90
42339;DHT22;27993;45.392;10.918;2024-01-30T03:23:22;-1.10;99.90
42339;DHT22;27993;45.392;10.918;2024-01-30T03:25:53;-0.90;99.90
42339;DHT22;27993;45.392;10.918;2024-01-30T03:28:23;-0.90;99.90
42339;DHT22;27993;45.392;10.918;2024-01-30T03:30:54;-0.90;99.90
42339;DHT22;27993;45.392;10.918;2024-01-30T03:33:25;-0.90;99.90
42339;DHT22;27993;45.392;10.918;2024-01-30T03:35:55;-0.80;99.90
42339;DHT22;27993;45.392;10.918;2024-01-30T03:38:26;-0.70;99.90
42339;DHT22;27993;45.392;10.918;2024-01-30T03:40:56;-0.70;99.90
42339;DHT22;27993;45.392;10.918;2024-01-30T03:43:27;-0.70;99.90
42339;DHT22;27993;45.392;10.918;2024-01-30T03:45:58;-0.80;99.90
42339;DHT22;27993;45.392;10.918;2024-01-30T03:48:29;-0.80;99.90
42339;DHT22;27993;45.392;10.918;2024-01-30T03:51:03;-0.70;99.90
42339;DHT22;27993;45.392;10.918;2024-01-30T03:53:34;-0.80;99.90
42339;DHT22;27993;45.392;10.918;2024-01-30T03:56:04;-0.70;99.90
42339;DHT22;27993;45.392;10.918;2024-01-30T03:58:35;-0.80;99.90
42339;DHT22;27993;45.392;10.918;2024-01-30T04:01:06;-0.80;99.90
42339;DHT22;27993;45.392;10.918;2024-01-30T04:03:36;-0.80;99.90
42339;DHT22;27993;45.392;10.918;2024-01-30T04:06:07;-0.90;99.90
42339;DHT22;27993;45.392;10.918;2024-01-30T04:08:38;-0.80;99.90
42339;DHT22;27993;45.392;10.918;2024-01-30T04:11:09;-0.80;99.90
42339;DHT22;27993;45.392;10.918;2024-01-30T04:13:40;-0.80;99.90
42339;DHT22;27993;45.392;10.918;2024-01-30T04:16:22;-0.80;99.90
42339;DHT22;27993;45.392;10.918;2024-01-30T04:18:52;-0.80;99.90
42339;DHT22;27993;45.392;10.918;2024-01-30T04:21:23;-0.80;99.90
42339;DHT22;27993;45.392;10.918;2024-01-30T04:23:54;-0.80;99.90
42339;DHT22;27993;45.392;10.918;2024-01-30T04:26:24;-0.80;99.90
42339;DHT22;27993;45.392;10.918;2024-01-30T04:28:55;-0.90;99.90
42339;DHT22;27993;45.392;10.918;2024-01-30T04:31:25;-0.90;99.90
42339;DHT22;27993;45.392;10.918;2024-01-30T04:33:56;-0.80;99.90
42339;DHT22;27993;45.392;10.918;2024-01-30T04:36:27;-0.80;99.90
42339;DHT22;27993;45.392;10.918;2024-01-30T04:38:57;-0.70;99.90
42339;DHT22;27993;45.392;10.918;2024-01-30T04:41:28;-0.80;99.90
42339;DHT22;27993;45.392;10.918;2024-01-30T04:44:01;-0.80;99.90
42339;DHT22;27993;45.392;10.918;2024-01-30T04:46:32;-0.80;99.90
42339;DHT22;27993;45.392;10.918;2024-01-30T04:49:04;-0.70;99.90
42339;DHT22;27993;45.392;10.918;2024-01-30T04:51:35;-0.80;99.90
42339;DHT22;27993;45.392;10.918;2024-01-30T04:54:06;-0.80;99.90
42339;DHT22;27993;45.392;10.918;2024-01-30T04:56:36;-0.80;99.90
42339;DHT22;27993;45.392;10.918;2024-01-30T04:59:07;-0.90;99.90
42339;DHT22;27993;45.392;10.918;2024-01-30T05:01:39;-0.90;99.90
42339;DHT22;27993;45.392;10.918;2024-01-30T05:04:09;-0.70;99.90
42339;DHT22;27993;45.392;10.918;2024-01-30T05:06:41;-0.70;99.90
42339;DHT22;27993;45.392;10.918;2024-01-30T05:09:12;-0.80;99.90
42339;DHT22;27993;45.392;10.918;2024-01-30T05:11:42;-0.90;99.90
42339;DHT22;27993;45.392;10.918;2024-01-30T05:14:13;-0.80;99.90
42339;DHT22;27993;45.392;10.918;2024-01-30T05:16:48;-0.80;99.90
42339;DHT22;27993;45.392;10.918;2024-01-30T05:19:18;-0.90;99.90
42339;DHT22;27993;45.392;10.918;2024-01-30T05:21:50;-0.90;99.90
42339;DHT22;27993;45.392;10.918;2024-01-30T05:24:21;-0.80;99.90
42339;DHT22;27993;45.392;10.918;2024-01-30T05:26:51;-0.80;99.90
42339;DHT22;27993;45.392;10.918;2024-01-30T05:29:22;-0.90;99.90
42339;DHT22;27993;45.392;10.918;2024-01-30T05:31:53;-0.80;99.90
42339;DHT22;27993;45.392;10.918;2024-01-30T05:34:23;-0.90;99.90
42339;DHT22;27993;45.392;10.918;2024-01-30T05:36:54;-0.90;99.90
42339;DHT22;27993;45.392;10.918;2024-01-30T05:39:24;-0.90;99.90
42339;DHT22;27993;45.392;10.918;2024-01-30T05:41:55;-1.00;99.90
42339;DHT22;27993;45.392;10.918;2024-01-30T05:44:26;-1.10;99.90
42339;DHT22;27993;45.392;10.918;2024-01-30T05:46:56;-0.90;99.90
42339;DHT22;27993;45.392;10.918;2024-01-30T05:49:27;-0.90;99.90
42339;DHT22;27993;45.392;10.918;2024-01-30T05:51:58;-0.90;99.90
42339;DHT22;27993;45.392;10.918;2024-01-30T05:54:29;-0.90;99.90
42339;DHT22;27993;45.392;10.918;2024-01-30T05:56:59;-1.00;99.90
42339;DHT22;27993;45.392;10.918;2024-01-30T05:59:31;-2.30;99.90
42339;DHT22;27993;45.392;10.918;2024-01-30T06:02:05;-2.10;99.90
42339;DHT22;27993;45.392;10.918;2024-01-30T06:04:35;-2.30;99.90
42339;DHT22;27993;45.392;10.918;2024-01-30T06:07:06;-2.60;99.90
42339;DHT22;27993;45.392;10.918;2024-01-30T06:09:36;-2.60;99.90
42339;DHT22;27993;45.392;10.918;2024-01-30T06:12:08;-2.50;99.90
42339;DHT22;27993;45.392;10.918;2024-01-30T06:14:42;-2.80;99.90
42339;DHT22;27993;45.392;10.918;2024-01-30T06:17:12;-2.80;99.90
42339;DHT22;27993;45.392;10.918;2024-01-30T06:19:44;-2.80;99.90
42339;DHT22;27993;45.392;10.918;2024-01-30T06:22:15;-2.60;99.90
42339;DHT22;27993;45.392;10.918;2024-01-30T06:24:46;-2.80;99.90
42339;DHT22;27993;45.392;10.918;2024-01-30T06:27:18;-3.00;99.90
42339;DHT22;27993;45.392;10.918;2024-01-30T06:29:49;-3.10;99.90
42339;DHT22;27993;45.392;10.918;2024-01-30T06:32:20;-3.30;99.90
42339;DHT22;27993;45.392;10.918;2024-01-30T06:34:50;-2.30;99.90
42339;DHT22;27993;45.392;10.918;2024-01-30T06:37:21;-1.70;99.90
42339;DHT22;27993;45.392;10.918;2024-01-30T06:39:54;-2.10;99.90
42339;DHT22;27993;45.392;10.918;2024-01-30T06:42:25;-2.50;99.90
42339;DHT22;27993;45.392;10.918;2024-01-30T06:44:56;-2.50;99.90
42339;DHT22;27993;45.392;10.918;2024-01-30T06:47:26;-2.40;99.90
42339;DHT22;27993;45.392;10.918;2024-01-30T06:49:57;-2.40;99.90
42339;DHT22;27993;45.392;10.918;2024-01-30T06:52:28;-2.40;99.90
42339;DHT22;27993;45.392;10.918;2024-01-30T06:54:58;-2.10;99.90
42339;DHT22;27993;45.392;10.918;2024-01-30T06:57:29;-2.10;99.90
42339;DHT22;27993;45.392;10.918;2024-01-30T07:00:01;-1.90;99.90
42339;DHT22;27993;45.392;10.918;2024-01-30T07:02:31;-2.20;99.90
42339;DHT22;27993;45.392;10.918;2024-01-30T07:05:03;-2.00;99.90
42339;DHT22;27993;45.392;10.918;2024-01-30T07:07:33;-2.20;99.90
42339;DHT22;27993;45.392;10.918;2024-01-30T07:10:04;-2.40;99.90
42339;DHT22;27993;45.392;10.918;2024-01-30T07:12:38;-2.50;99.90
42339;DHT22;27993;45.392;10.918;2024-01-30T07:15:09;-2.80;99.90
42339;DHT22;27993;45.392;10.918;2024-01-30T07:17:40;-3.00;99.90
42339;DHT22;27993;45.392;10.918;2024-01-30T07:20:10;-2.80;99.90
42339;DHT22;27993;45.392;10.918;2024-01-30T07:22:41;-3.20;99.90
42339;DHT22;27993;45.392;10.918;2024-01-30T07:25:12;-2.10;99.90
42339;DHT22;27993;45.392;10.918;2024-01-30T07:27:42;-1.70;99.90
42339;DHT22;27993;45.392;10.918;2024-01-30T07:30:13;-2.10;99.90
42339;DHT22;27993;45.392;10.918;2024-01-30T07:32:47;-2.40;99.90
42339;DHT22;27993;45.392;10.918;2024-01-30T07:35:18;-2.40;99.90
42339;DHT22;27993;45.392;10.918;2024-01-30T07:37:48;-1.70;99.90
42339;DHT22;27993;45.392;10.918;2024-01-30T07:40:19;-1.50;99.90
42339;DHT22;27993;45.392;10.918;2024-01-30T07:42:50;-1.40;99.90
42339;DHT22;27993;45.392;10.918;2024-01-30T07:45:20;-1.40;99.90
42339;DHT22;27993;45.392;10.918;2024-01-30T07:47:55;-1.40;99.90
42339;DHT22;27993;45.392;10.918;2024-01-30T07:50:25;-1.20;99.90
42339;DHT22;27993;45.392;10.918;2024-01-30T07:52:56;-1.10;99.90
42339;DHT22;27993;45.392;10.918;2024-01-30T07:55:27;-1.00;99.90
42339;DHT22;27993;45.392;10.918;2024-01-30T07:57:59;-1.00;99.90
42339;DHT22;27993;45.392;10.918;2024-01-30T08:00:30;-1.00;99.90
42339;DHT22;27993;45.392;10.918;2024-01-30T08:03:01;-1.10;99.90
42339;DHT22;27993;45.392;10.918;2024-01-30T08:05:31;-1.00;99.90
42339;DHT22;27993;45.392;10.918;2024-01-30T08:08:02;-1.00;99.90
42339;DHT22;27993;45.392;10.918;2024-01-30T08:10:32;-1.00;99.90
42339;DHT22;27993;45.392;10.918;2024-01-30T08:13:03;-1.00;99.90
42339;DHT22;27993;45.392;10.918;2024-01-30T08:15:34;-1.10;99.90
42339;DHT22;27993;45.392;10.918;2024-01-30T08:18:05;-0.90;99.90
42339;DHT22;27993;45.392;10.918;2024-01-30T08:20:37;-0.90;99.90
42339;DHT22;27993;45.392;10.918;2024-01-30T08:23:08;-0.80;99.90
42339;DHT22;27993;45.392;10.918;2024-01-30T08:25:38;-0.70;99.90
42339;DHT22;27993;45.392;10.918;2024-01-30T08:28:12;-0.80;99.90
42339;DHT22;27993;45.392;10.918;2024-01-30T08:30:42;-0.70;99.90
42339;DHT22;27993;45.392;10.918;2024-01-30T08:33:13;-0.60;99.90
42339;DHT22;27993;45.392;10.918;2024-01-30T08:35:43;-0.60;99.90
42339;DHT22;27993;45.392;10.918;2024-01-30T08:38:14;-0.60;99.90
42339;DHT22;27993;45.392;10.918;2024-01-30T08:40:45;-0.60;99.90
42339;DHT22;27993;45.392;10.918;2024-01-30T08:43:15;-0.50;99.90
42339;DHT22;27993;45.392;10.918;2024-01-30T08:45:46;-0.40;99.90
42339;DHT22;27993;45.392;10.918;2024-01-30T08:48:17;-0.40;99.90
42339;DHT22;27993;45.392;10.918;2024-01-30T08:50:48;-0.30;99.90
42339;DHT22;27993;45.392;10.918;2024-01-30T08:53:18;-0.60;99.90
42339;DHT22;27993;45.392;10.918;2024-01-30T08:55:49;-0.30;99.90
42339;DHT22;27993;45.392;10.918;2024-01-30T08:58:20;-0.20;99.90
42339;DHT22;27993;45.392;10.918;2024-01-30T09:00:50;-0.20;99.90
42339;DHT22;27993;45.392;10.918;2024-01-30T09:03:22;-0.20;99.90
42339;DHT22;27993;45.392;10.918;2024-01-30T09:05:52;-0.10;99.90
42339;DHT22;27993;45.392;10.918;2024-01-30T09:08:23;0.00;99.90
42339;DHT22;27993;45.392;10.918;2024-01-30T09:10:54;0.00;99.90
42339;DHT22;27993;45.392;10.918;2024-01-30T09:13:25;0.00;99.90
42339;DHT22;27993;45.392;10.918;2024-01-30T09:15:55;0.10;99.90
42339;DHT22;27993;45.392;10.918;2024-01-30T09:18:26;0.00;99.90
42339;DHT22;27993;45.392;10.918;2024-01-30T09:20:57;0.00;99.90
42339;DHT22;27993;45.392;10.918;2024-01-30T09:23:28;0.00;99.90
42339;DHT22;27993;45.392;10.918;2024-01-30T09:25:59;0.00;99.90
42339;DHT22;27993;45.392;10.918;2024-01-30T09:28:29;-0.10;99.90
42339;DHT22;27993;45.392;10.918;2024-01-30T09:31:00;-0.10;99.90
42339;DHT22;27993;45.392;10.918;2024-01-30T09:33:31;0.00;99.90
42339;DHT22;27993;45.392;10.918;2024-01-30T09:36:01;0.10;99.90
42339;DHT22;27993;45.392;10.918;2024-01-30T09:38:32;0.20;99.90
42339;DHT22;27993;45.392;10.918;2024-01-30T09:41:09;0.30;99.90
42339;DHT22;27993;45.392;10.918;2024-01-30T09:43:47;0.30;99.90
42339;DHT22;27993;45.392;10.918;2024-01-30T09:46:21;0.40;99.90
42339;DHT22;27993;45.392;10.918;2024-01-30T09:48:53;0.50;99.90
42339;DHT22;27993;45.392;10.918;2024-01-30T09:51:26;0.60;99.90
42339;DHT22;27993;45.392;10.918;2024-01-30T09:54:02;0.50;99.90
42339;DHT22;27993;45.392;10.918;2024-01-30T09:56:33;0.40;99.90
42339;DHT22;27993;45.392;10.918;2024-01-30T09:59:03;0.50;99.90
42339;DHT22;27993;45.392;10.918;2024-01-30T10:01:34;0.60;99.90
42339;DHT22;27993;45.392;10.918;2024-01-30T10:04:06;0.60;99.90
42339;DHT22;27993;45.392;10.918;2024-01-30T10:06:37;0.70;99.90
42339;DHT22;27993;45.392;10.918;2024-01-30T10:09:08;0.60;99.90
42339;DHT22;27993;45.392;10.918;2024-01-30T10:11:39;0.60;99.90
42339;DHT22;27993;45.392;10.918;2024-01-30T10:14:10;0.70;99.90
42339;DHT22;27993;45.392;10.918;2024-01-30T10:16:41;0.80;99.90
42339;DHT22;27993;45.392;10.918;2024-01-30T10:19:11;0.90;99.90
42339;DHT22;27993;45.392;10.918;2024-01-30T10:21:42;1.00;99.90
42339;DHT22;27993;45.392;10.918;2024-01-30T10:24:13;0.90;99.90
42339;DHT22;27993;45.392;10.918;2024-01-30T10:26:44;0.90;99.90
42339;DHT22;27993;45.392;10.918;2024-01-30T10:29:15;1.00;99.90
42339;DHT22;27993;45.392;10.918;2024-01-30T10:31:45;1.20;99.90
42339;DHT22;27993;45.392;10.918;2024-01-30T10:34:17;1.20;99.90
42339;DHT22;27993;45.392;10.918;2024-01-30T10:37:00;1.50;99.90
42339;DHT22;27993;45.392;10.918;2024-01-30T10:39:38;1.30;99.90
42339;DHT22;27993;45.392;10.918;2024-01-30T10:42:14;1.50;99.90
42339;DHT22;27993;45.392;10.918;2024-01-30T10:45:00;1.70;99.90
42339;DHT22;27993;45.392;10.918;2024-01-30T10:47:35;1.60;99.90
42339;DHT22;27993;45.392;10.918;2024-01-30T10:50:09;1.80;99.90
42339;DHT22;27993;45.392;10.918;2024-01-30T10:52:41;2.10;99.90
42339;DHT22;27993;45.392;10.918;2024-01-30T10:55:14;2.10;99.90
42339;DHT22;27993;45.392;10.918;2024-01-30T10:57:46;2.30;99.90
42339;DHT22;27993;45.392;10.918;2024-01-30T11:00:17;2.20;99.90
42339;DHT22;27993;45.392;10.918;2024-01-30T11:02:50;2.60;99.90
42339;DHT22;27993;45.392;10.918;2024-01-30T11:05:24;2.70;99.90
42339;DHT22;27993;45.392;10.918;2024-01-30T11:07:56;4.10;99.90
42339;DHT22;27993;45.392;10.918;2024-01-30T11:10:27;5.40;99.90
42339;DHT22;27993;45.392;10.918;2024-01-30T11:12:58;5.40;99.90
42339;DHT22;27993;45.392;10.918;2024-01-30T11:15:29;4.50;99.90
42339;DHT22;27993;45.392;10.918;2024-01-30T11:18:01;4.30;99.90
42339;DHT22;27993;45.392;10.918;2024-01-30T11:20:32;4.60;99.90
42339;DHT22;27993;45.392;10.918;2024-01-30T11:23:03;5.00;99.90
42339;DHT22;27993;45.392;10.918;2024-01-30T11:25:37;4.70;99.90
42339;DHT22;27993;45.392;10.918;2024-01-30T11:28:13;5.50;99.90
42339;DHT22;27993;45.392;10.918;2024-01-30T11:30:45;5.60;99.90
42339;DHT22;27993;45.392;10.918;2024-01-30T11:33:28;5.70;99.90
42339;DHT22;27993;45.392;10.918;2024-01-30T11:36:03;6.10;99.90
42339;DHT22;27993;45.392;10.918;2024-01-30T11:38:37;6.00;99.90
42339;DHT22;27993;45.392;10.918;2024-01-30T11:41:08;6.30;99.90
42339;DHT22;27993;45.392;10.918;2024-01-30T11:43:39;5.90;99.90
42339;DHT22;27993;45.392;10.918;2024-01-30T11:46:10;5.90;99.90
42339;DHT22;27993;45.392;10.918;2024-01-30T11:48:41;6.30;99.90
42339;DHT22;27993;45.392;10.918;2024-01-30T11:51:13;6.60;99.90
42339;DHT22;27993;45.392;10.918;2024-01-30T11:53:44;7.10;99.90
42339;DHT22;27993;45.392;10.918;2024-01-30T11:56:14;6.90;99.90
42339;DHT22;27993;45.392;10.918;2024-01-30T11:58:45;7.00;99.90
42339;DHT22;27993;45.392;10.918;2024-01-30T12:01:17;6.70;99.90
42339;DHT22;27993;45.392;10.918;2024-01-30T12:03:51;6.80;99.90
42339;DHT22;27993;45.392;10.918;2024-01-30T12:06:22;7.10;99.90
42339;DHT22;27993;45.392;10.918;2024-01-30T12:09:00;6.80;99.90
42339;DHT22;27993;45.392;10.918;2024-01-30T12:11:31;7.00;99.90
42339;DHT22;27993;45.392;10.918;2024-01-30T12:14:02;6.60;99.90
42339;DHT22;27993;45.392;10.918;2024-01-30T12:16:32;6.80;99.90
42339;DHT22;27993;45.392;10.918;2024-01-30T12:19:03;6.80;99.90
42339;DHT22;27993;45.392;10.918;2024-01-30T12:21:34;6.90;99.90
42339;DHT22;27993;45.392;10.918;2024-01-30T12:24:05;6.80;99.90
42339;DHT22;27993;45.392;10.918;2024-01-30T12:26:37;7.10;99.90
42339;DHT22;27993;45.392;10.918;2024-01-30T12:29:08;7.10;99.90
42339;DHT22;27993;45.392;10.918;2024-01-30T12:31:38;7.60;99.90
42339;DHT22;27993;45.392;10.918;2024-01-30T12:34:14;7.60;99.90
42339;DHT22;27993;45.392;10.918;2024-01-30T12:36:47;7.30;99.90
42339;DHT22;27993;45.392;10.918;2024-01-30T12:39:19;7.20;99.90
42339;DHT22;27993;45.392;10.918;2024-01-30T12:41:49;7.30;99.90
42339;DHT22;27993;45.392;10.918;2024-01-30T12:44:23;7.10;99.90
42339;DHT22;27993;45.392;10.918;2024-01-30T12:46:54;7.30;99.90
42339;DHT22;27993;45.392;10.918;2024-01-30T12:49:25;7.40;99.90
42339;DHT22;27993;45.392;10.918;2024-01-30T12:51:56;7.20;99.90
42339;DHT22;27993;45.392;10.918;2024-01-30T12:54:26;7.40;99.90
42339;DHT22;27993;45.392;10.918;2024-01-30T12:56:57;7.40;99.90
42339;DHT22;27993;45.392;10.918;2024-01-30T12:59:28;7.40;99.90
42339;DHT22;27993;45.392;10.918;2024-01-30T13:02:00;7.60;99.90
42339;DHT22;27993;45.392;10.918;2024-01-30T13:04:31;7.30;99.90
42339;DHT22;27993;45.392;10.918;2024-01-30T13:07:02;7.70;99.90
42339;DHT22;27993;45.392;10.918;2024-01-30T13:09:32;7.60;99.90
42339;DHT22;27993;45.392;10.918;2024-01-30T13:12:03;7.70;99.90
42339;DHT22;27993;45.392;10.918;2024-01-30T13:14:34;7.70;99.90
42339;DHT22;27993;45.392;10.918;2024-01-30T13:17:04;7.60;99.90
42339;DHT22;27993;45.392;10.918;2024-01-30T13:19:35;7.50;99.90
42339;DHT22;27993;45.392;10.918;2024-01-30T13:22:06;7.40;99.90
42339;DHT22;27993;45.392;10.918;2024-01-30T13:24:36;7.30;99.90
42339;DHT22;27993;45.392;10.918;2024-01-30T13:27:07;7.30;99.90
42339;DHT22;27993;45.392;10.918;2024-01-30T13:29:39;7.20;99.90
42339;DHT22;27993;45.392;10.918;2024-01-30T13:32:09;7.40;99.90
42339;DHT22;27993;45.392;10.918;2024-01-30T13:34:40;7.50;99.90
42339;DHT22;27993;45.392;10.918;2024-01-30T13:37:11;7.70;99.90
42339;DHT22;27993;45.392;10.918;2024-01-30T13:39:42;7.70;99.90
42339;DHT22;27993;45.392;10.918;2024-01-30T13:42:12;7.70;99.90
42339;DHT22;27993;45.392;10.918;2024-01-30T13:44:43;7.90;99.90
42339;DHT22;27993;45.392;10.918;2024-01-30T13:47:14;7.90;99.90
42339;DHT22;27993;45.392;10.918;2024-01-30T13:49:44;7.90;99.90
42339;DHT22;27993;45.392;10.918;2024-01-30T13:52:15;8.10;99.90
42339;DHT22;27993;45.392;10.918;2024-01-30T13:54:46;7.90;99.90
42339;DHT22;27993;45.392;10.918;2024-01-30T13:57:16;8.10;99.90
42339;DHT22;27993;45.392;10.918;2024-01-30T13:59:47;8.20;99.90
42339;DHT22;27993;45.392;10.918;2024-01-30T14:02:18;7.90;99.90
42339;DHT22;27993;45.392;10.918;2024-01-30T14:04:48;7.80;99.90
42339;DHT22;27993;45.392;10.918;2024-01-30T14:07:19;7.90;99.90
42339;DHT22;27993;45.392;10.918;2024-01-30T14:09:49;7.90;99.90
42339;DHT22;27993;45.392;10.918;2024-01-30T14:12:20;7.80;99.90
42339;DHT22;27993;45.392;10.918;2024-01-30T14:14:50;7.90;99.90
42339;DHT22;27993;45.392;10.918;2024-01-30T14:17:21;7.90;99.90
42339;DHT22;27993;45.392;10.918;2024-01-30T14:19:52;8.00;99.90
42339;DHT22;27993;45.392;10.918;2024-01-30T14:22:22;8.00;99.90
42339;DHT22;27993;45.392;10.918;2024-01-30T14:24:53;8.00;99.90
42339;DHT22;27993;45.392;10.918;2024-01-30T14:27:23;8.00;99.90
42339;DHT22;27993;45.392;10.918;2024-01-30T14:29:55;8.00;99.90
42339;DHT22;27993;45.392;10.918;2024-01-30T14:32:25;7.90;99.90
42339;DHT22;27993;45.392;10.918;2024-01-30T14:34:56;7.80;99.90
42339;DHT22;27993;45.392;10.918;2024-01-30T14:37:26;7.90;99.90
42339;DHT22;27993;45.392;10.918;2024-01-30T14:40:03;7.90;99.90
42339;DHT22;27993;45.392;10.918;2024-01-30T14:42:35;7.80;99.90
42339;DHT22;27993;45.392;10.918;2024-01-30T14:45:07;7.70;99.90
42339;DHT22;27993;45.392;10.918;2024-01-30T14:47:38;7.70;99.90
42339;DHT22;27993;45.392;10.918;2024-01-30T14:50:09;7.70;99.90
42339;DHT22;27993;45.392;10.918;2024-01-30T14:52:39;7.80;99.90
42339;DHT22;27993;45.392;10.918;2024-01-30T14:55:10;7.80;99.90
42339;DHT22;27993;45.392;10.918;2024-01-30T14:57:41;7.70;99.90
42339;DHT22;27993;45.392;10.918;2024-01-30T15:00:13;7.60;99.90
42339;DHT22;27993;45.392;10.918;2024-01-30T15:02:44;7.50;99.90
42339;DHT22;27993;45.392;10.918;2024-01-30T15:05:17;7.50;99.90
42339;DHT22;27993;45.392;10.918;2024-01-30T15:07:47;7.50;99.90
42339;DHT22;27993;45.392;10.918;2024-01-30T15:10:18;7.40;99.90
42339;DHT22;27993;45.392;10.918;2024-01-30T15:12:48;7.30;99.90
42339;DHT22;27993;45.392;10.918;2024-01-30T15:15:19;7.30;99.90
42339;DHT22;27993;45.392;10.918;2024-01-30T15:17:50;7.30;99.90
42339;DHT22;27993;45.392;10.918;2024-01-30T15:20:20;7.10;99.90
42339;DHT22;27993;45.392;10.918;2024-01-30T15:22:51;7.20;99.90
42339;DHT22;27993;45.392;10.918;2024-01-30T15:25:21;7.00;99.90
42339;DHT22;27993;45.392;10.918;2024-01-30T15:27:52;6.80;99.90
42339;DHT22;27993;45.392;10.918;2024-01-30T15:30:23;6.60;99.90
42339;DHT22;27993;45.392;10.918;2024-01-30T15:32:53;6.60;99.90
42339;DHT22;27993;45.392;10.918;2024-01-30T15:35:24;6.50;99.90
42339;DHT22;27993;45.392;10.918;2024-01-30T15:37:54;6.50;99.90
42339;DHT22;27993;45.392;10.918;2024-01-30T15:40:25;6.50;99.90
42339;DHT22;27993;45.392;10.918;2024-01-30T15:42:56;6.40;99.90
42339;DHT22;27993;45.392;10.918;2024-01-30T15:45:26;6.30;99.90
42339;DHT22;27993;45.392;10.918;2024-01-30T15:47:57;6.30;99.90